Time;durP1;ratioP1;P1;durP2;ratioP2;P2;SDS_P1;SDS_P2;PMS_P1;PMS_P2;Temp;Humidity;BMP_temperature;BMP_pressure;BME280_temperature;BME280_humidity;BME280_pressure;Samples;Min_cycle;Max_cycle;Signal;HPM_P1;HPM_P2
2022/09/19 00:00:14;;;;;;;9.98;3.88;;;11.90;99.90;;;;;;5077336;28;20257;-83
2022/09/19 00:03:03;;;;;;;9.63;4.10;;;11.90;99.90;;;;;;5081332;28;20223;-83
2022/09/19 00:05:52;;;;;;;8.48;3.70;;;12.00;99.90;;;;;;5080048;28;20551;-85
2022/09/19 00:08:42;;;;;;;9.32;3.78;;;11.90;99.90;;;;;;5065472;28;20361;-85
2022/09/19 00:11:33;;;;;;;9.32;3.65;;;11.90;99.90;;;;;;5078540;28;20256;-83
2022/09/19 00:14:24;;;;;;;8.35;3.15;;;12.00;99.90;;;;;;5080114;28;20223;-86
2022/09/19 00:17:13;;;;;;;6.05;3.17;;;11.90;99.90;;;;;;5080383;28;20336;-86
2022/09/19 00:20:02;;;;;;;8.32;3.55;;;12.10;99.90;;;;;;5065115;28;20258;-85
2022/09/19 00:25:58;;;;;;;8.88;3.50;;;12.00;99.90;;;;;;5077061;28;20226;-82
2022/09/19 00:28:48;;;;;;;7.63;3.30;;;12.00;99.90;;;;;;5079860;28;20227;-82
2022/09/19 00:31:38;;;;;;;8.38;3.75;;;11.80;99.90;;;;;;5080406;28;20230;-84
2022/09/19 00:34:26;;;;;;;7.15;3.00;;;11.80;99.90;;;;;;5080162;28;21162;-83
2022/09/19 00:37:16;;;;;;;8.25;3.20;;;11.70;99.90;;;;;;5078085;28;20235;-81
2022/09/19 00:40:06;;;;;;;7.47;3.42;;;11.70;99.90;;;;;;5064543;28;20238;-84
2022/09/19 00:42:54;;;;;;;8.63;3.03;;;11.70;99.90;;;;;;5080526;28;20250;-82
2022/09/19 00:45:45;;;;;;;7.65;3.47;;;11.60;99.90;;;;;;5066551;28;20224;-82
2022/09/19 00:48:34;;;;;;;7.45;3.45;;;11.60;99.90;;;;;;5079466;28;20238;-83
2022/09/19 00:51:31;;;;;;;9.88;3.20;;;11.60;99.90;;;;;;5063147;28;20295;-84
2022/09/19 00:54:22;;;;;;;8.45;3.47;;;11.50;99.90;;;;;;5066986;28;20219;-84
2022/09/19 00:57:15;;;;;;;9.35;3.45;;;11.40;99.90;;;;;;5053643;28;20331;-83
2022/09/19 01:00:05;;;;;;;5.43;3.17;;;11.50;99.90;;;;;;5071112;28;20762;-85
2022/09/19 01:02:55;;;;;;;9.40;3.33;;;11.50;99.90;;;;;;5061796;28;20329;-83
2022/09/19 01:05:50;;;;;;;8.65;2.95;;;11.60;99.90;;;;;;5063718;28;20220;-82
2022/09/19 01:08:55;;;;;;;6.70;3.67;;;11.60;99.90;;;;;;5068293;28;20228;-83
2022/09/19 01:11:57;;;;;;;5.95;3.28;;;11.50;99.90;;;;;;5062831;28;20236;-84
2022/09/19 01:15:09;;;;;;;6.35;3.42;;;11.50;99.90;;;;;;5064745;28;20370;-84
2022/09/19 01:18:01;;;;;;;7.35;3.38;;;11.50;99.90;;;;;;5048845;28;20335;-83
2022/09/19 01:24:49;;;;;;;7.57;3.40;;;11.50;99.90;;;;;;5052113;28;20338;-82
2022/09/19 01:28:08;;;;;;;9.45;3.45;;;11.50;99.90;;;;;;5050648;28;20714;-82
2022/09/19 01:31:19;;;;;;;9.82;3.67;;;11.50;99.90;;;;;;5061932;28;20676;-81
2022/09/19 01:34:14;;;;;;;8.10;3.80;;;11.60;99.90;;;;;;5053135;28;20224;-81
2022/09/19 01:37:07;;;;;;;8.00;4.20;;;11.40;99.90;;;;;;5065447;28;20220;-81
2022/09/19 01:40:00;;;;;;;8.23;3.67;;;11.30;99.90;;;;;;5061831;28;20235;-81
2022/09/19 01:42:55;;;;;;;7.22;3.33;;;11.30;99.90;;;;;;5051515;28;20219;-82
2022/09/19 01:45:47;;;;;;;10.18;3.72;;;11.30;99.90;;;;;;5060245;28;20236;-85
2022/09/19 01:48:46;;;;;;;9.10;3.70;;;11.20;99.90;;;;;;5051367;28;20227;-83
2022/09/19 01:51:44;;;;;;;7.45;3.80;;;11.20;99.90;;;;;;5057255;28;20251;-81
2022/09/19 01:54:42;;;;;;;11.57;3.85;;;11.20;99.90;;;;;;5056576;28;20263;-82
2022/09/19 01:57:43;;;;;;;10.40;3.72;;;11.20;99.90;;;;;;5042045;28;20883;-82
2022/09/19 02:00:40;;;;;;;10.05;3.88;;;11.20;99.90;;;;;;5042477;28;20756;-85
2022/09/19 02:03:40;;;;;;;8.48;4.20;;;11.10;99.90;;;;;;5059296;28;20278;-84
2022/09/19 02:06:42;;;;;;;8.07;3.75;;;11.10;99.90;;;;;;5041957;28;20228;-82
2022/09/19 02:09:43;;;;;;;7.88;3.70;;;10.90;99.90;;;;;;5055730;28;20227;-82
2022/09/19 02:12:36;;;;;;;9.43;3.65;;;10.90;99.90;;;;;;5056722;28;20314;-83
2022/09/19 02:15:33;;;;;;;8.90;3.80;;;10.90;99.90;;;;;;5056507;28;20757;-81
2022/09/19 02:18:29;;;;;;;7.90;3.55;;;11.00;99.90;;;;;;5056365;28;20228;-83
2022/09/19 02:21:30;;;;;;;8.90;3.50;;;10.80;99.90;;;;;;5054730;28;20259;-85
2022/09/19 02:24:26;;;;;;;7.60;3.20;;;10.90;99.90;;;;;;5044256;28;20224;-82
2022/09/19 02:27:20;;;;;;;6.65;3.38;;;10.80;99.90;;;;;;5057087;28;20843;-82
2022/09/19 02:30:11;;;;;;;8.32;3.40;;;10.70;99.90;;;;;;5054831;28;20685;-81
2022/09/19 02:33:06;;;;;;;8.50;3.95;;;10.70;99.90;;;;;;5039147;28;20596;-81
2022/09/19 02:36:02;;;;;;;6.88;3.60;;;10.60;99.90;;;;;;5038837;28;20248;-83
2022/09/19 02:38:59;;;;;;;6.05;3.50;;;10.50;99.90;;;;;;5056305;28;20653;-81
2022/09/19 02:42:33;;;;;;;7.32;3.72;;;10.30;99.90;;;;;;5046544;28;20227;-81
2022/09/19 02:45:27;;;;;;;8.40;3.70;;;10.30;99.90;;;;;;5046656;28;20231;-82
2022/09/19 02:48:28;;;;;;;9.93;4.28;;;10.40;99.90;;;;;;5041708;28;20231;-82
2022/09/19 02:51:24;;;;;;;6.85;3.70;;;10.50;99.90;;;;;;5061316;28;20235;-83
2022/09/19 02:54:21;;;;;;;8.77;4.53;;;10.40;99.90;;;;;;5059581;28;20414;-82
2022/09/19 02:57:16;;;;;;;9.27;3.45;;;10.40;99.90;;;;;;5062100;28;20248;-81
2022/09/19 03:00:07;;;;;;;9.77;4.18;;;10.30;99.90;;;;;;5054651;28;20215;-83
2022/09/19 03:04:11;;;;;;;9.27;4.07;;;10.30;99.90;;;;;;5061768;28;20223;-81
2022/09/19 03:06:15;;;;;;;6.13;3.92;;;10.40;99.90;;;;;;5060342;28;20231;-82
2022/09/19 03:09:07;;;;;;;9.27;3.83;;;10.20;99.90;;;;;;5047811;28;20722;-84
2022/09/19 03:12:03;;;;;;;10.05;4.00;;;10.40;99.90;;;;;;5063781;28;20224;-82
2022/09/19 03:14:58;;;;;;;7.10;3.72;;;10.20;99.90;;;;;;5061559;28;20227;-82
2022/09/19 03:17:53;;;;;;;7.43;3.67;;;10.30;99.90;;;;;;5046711;28;20390;-82
2022/09/19 03:20:49;;;;;;;8.52;4.28;;;10.40;99.90;;;;;;5042069;28;20714;-83
2022/09/19 03:23:41;;;;;;;6.15;3.95;;;10.30;99.90;;;;;;5052327;28;20304;-82
2022/09/19 03:26:34;;;;;;;5.60;3.80;;;10.30;99.90;;;;;;5063143;28;20232;-82
2022/09/19 03:29:25;;;;;;;7.43;4.10;;;10.50;99.90;;;;;;5056620;28;20543;-81
2022/09/19 03:32:18;;;;;;;9.10;4.70;;;10.50;99.90;;;;;;5048883;28;20271;-81
2022/09/19 03:35:08;;;;;;;8.55;4.43;;;10.50;99.90;;;;;;5067148;28;20342;-81
2022/09/19 03:37:57;;;;;;;8.52;4.45;;;10.50;99.90;;;;;;5054183;28;20583;-81
2022/09/19 03:40:46;;;;;;;8.40;4.43;;;10.40;99.90;;;;;;5063417;28;20702;-82
2022/09/19 03:43:34;;;;;;;10.18;4.80;;;10.40;99.90;;;;;;5047245;28;20249;-81
2022/09/19 03:46:26;;;;;;;8.75;5.07;;;10.40;99.90;;;;;;5054961;28;20228;-83
2022/09/19 03:49:20;;;;;;;7.72;4.80;;;10.30;99.90;;;;;;5059217;28;20216;-81
2022/09/19 03:52:12;;;;;;;9.82;5.18;;;10.40;99.90;;;;;;5068487;28;20243;-82
2022/09/19 03:55:00;;;;;;;8.05;5.65;;;10.20;99.90;;;;;;5063804;28;20247;-83
2022/09/19 03:57:55;;;;;;;9.90;5.38;;;10.30;99.90;;;;;;5067594;28;20220;-83
2022/09/19 04:00:43;;;;;;;8.82;5.75;;;10.50;99.90;;;;;;5064672;28;20216;-82
2022/09/19 04:03:35;;;;;;;10.32;6.05;;;10.30;99.90;;;;;;5054962;28;20369;-80
2022/09/19 04:06:24;;;;;;;8.98;6.20;;;10.20;99.90;;;;;;5051298;28;20232;-81
2022/09/19 04:09:13;;;;;;;12.95;7.57;;;10.40;99.90;;;;;;5051185;28;20253;-81
2022/09/19 04:12:04;;;;;;;11.93;6.63;;;10.40;99.90;;;;;;5052356;28;20706;-81
2022/09/19 04:14:56;;;;;;;10.20;7.00;;;10.40;99.90;;;;;;5050607;28;20304;-81
2022/09/19 04:17:44;;;;;;;12.73;6.43;;;10.30;99.90;;;;;;5064442;28;20216;-83
2022/09/19 04:20:38;;;;;;;11.60;6.13;;;10.30;99.90;;;;;;5052791;28;20270;-81
2022/09/19 04:23:51;;;;;;;12.93;6.32;;;10.50;99.90;;;;;;5063231;28;20250;-81
2022/09/19 04:26:53;;;;;;;12.60;6.32;;;10.50;99.90;;;;;;5063460;28;20276;-82
2022/09/19 04:29:42;;;;;;;12.40;5.95;;;10.60;99.90;;;;;;5055972;28;20405;-81
2022/09/19 04:32:30;;;;;;;11.07;6.20;;;10.50;99.90;;;;;;5050073;28;20224;-82
2022/09/19 04:35:20;;;;;;;10.10;6.53;;;10.30;99.90;;;;;;5054861;28;20754;-81
2022/09/19 04:38:12;;;;;;;13.07;6.95;;;10.30;99.90;;;;;;5048735;28;20979;-82
2022/09/19 04:41:02;;;;;;;11.35;8.30;;;10.30;99.90;;;;;;5064147;28;20224;-81
2022/09/19 04:43:52;;;;;;;14.52;8.75;;;10.40;99.90;;;;;;5065425;28;20311;-82
2022/09/19 04:47:04;;;;;;;12.68;8.50;;;10.30;99.90;;;;;;5068774;28;20680;-82
2022/09/19 04:49:54;;;;;;;11.25;8.43;;;10.30;99.90;;;;;;5062146;28;20236;-82
2022/09/19 04:52:42;;;;;;;11.98;8.88;;;10.50;99.90;;;;;;5068839;28;20226;-82
2022/09/19 04:55:32;;;;;;;12.98;8.93;;;10.50;99.90;;;;;;5065311;28;20281;-83
2022/09/19 04:58:27;;;;;;;13.50;9.45;;;10.40;99.90;;;;;;5054705;28;20243;-82
2022/09/19 05:01:18;;;;;;;13.35;10.75;;;10.40;99.90;;;;;;5066083;28;20714;-85
2022/09/19 05:04:08;;;;;;;15.18;9.95;;;10.40;99.90;;;;;;5047650;28;20235;-82
2022/09/19 05:06:57;;;;;;;15.73;10.57;;;10.50;99.90;;;;;;5061045;28;20229;-82
2022/09/19 05:09:47;;;;;;;15.93;10.77;;;10.60;99.90;;;;;;5050176;28;20220;-84
2022/09/19 05:12:38;;;;;;;15.88;10.70;;;10.60;99.90;;;;;;5059196;28;20224;-81
2022/09/19 05:15:26;;;;;;;15.30;10.15;;;10.60;99.90;;;;;;5045718;28;20259;-82
2022/09/19 05:18:16;;;;;;;15.18;10.63;;;10.60;99.90;;;;;;5066219;28;20228;-85
2022/09/19 05:21:07;;;;;;;17.13;9.82;;;10.40;99.90;;;;;;5047414;28;20346;-82
2022/09/19 05:23:56;;;;;;;12.98;9.40;;;10.50;99.90;;;;;;5066013;28;20293;-83
2022/09/19 05:26:44;;;;;;;14.32;10.35;;;10.50;99.90;;;;;;5066639;28;20228;-83
2022/09/19 05:29:40;;;;;;;12.82;10.10;;;10.50;99.90;;;;;;5053989;28;20243;-84
2022/09/19 05:32:29;;;;;;;13.77;10.60;;;10.50;99.90;;;;;;5058896;28;20228;-89
2022/09/19 05:35:34;;;;;;;16.45;10.13;;;10.50;99.90;;;;;;5065484;28;20609;-89
2022/09/19 05:38:36;;;;;;;18.02;10.60;;;10.70;99.90;;;;;;5077559;28;20295;-92
2022/09/19 05:41:44;;;;;;;15.05;10.00;;;10.70;99.90;;;;;;5074281;28;20228;-91
2022/09/19 05:44:42;;;;;;;14.35;10.30;;;10.90;99.90;;;;;;5059379;28;20238;-93
2022/09/19 05:47:31;;;;;;;15.40;10.82;;;10.80;99.90;;;;;;5068415;28;20251;-91
2022/09/19 05:50:20;;;;;;;16.33;10.95;;;10.70;99.90;;;;;;5067535;28;20685;-90
2022/09/19 05:56:16;;;;;;;13.05;10.20;;;10.80;99.90;;;;;;5089675;28;20223;-91
2022/09/19 05:59:08;;;;;;;13.35;9.90;;;10.90;99.90;;;;;;5078074;28;20274;-92
2022/09/19 06:02:01;;;;;;;17.20;10.35;;;10.70;99.90;;;;;;5089987;28;20216;-89
2022/09/19 06:05:02;;;;;;;13.05;9.45;;;10.80;99.90;;;;;;5076010;28;20224;-91
2022/09/19 06:07:55;;;;;;;16.20;10.55;;;10.70;99.90;;;;;;5085117;28;20283;-88
2022/09/19 06:10:45;;;;;;;13.63;9.68;;;10.80;99.90;;;;;;5073124;28;20234;-93
2022/09/19 06:16:45;;;;;;;16.02;10.98;;;10.90;99.90;;;;;;5067791;28;20212;-91
2022/09/19 06:19:56;;;;;;;13.45;11.38;;;10.80;99.90;;;;;;5077746;28;20224;-92
2022/09/19 06:23:07;;;;;;;16.02;11.50;;;10.80;99.90;;;;;;5071174;28;20224;-91
2022/09/19 06:25:55;;;;;;;15.38;11.82;;;10.80;99.90;;;;;;5069453;28;20216;-92
2022/09/19 06:28:47;;;;;;;14.82;11.85;;;10.90;99.90;;;;;;5064100;28;20227;-89
2022/09/19 06:31:36;;;;;;;15.82;12.85;;;10.90;99.90;;;;;;5063005;28;20212;-87
2022/09/19 06:34:47;;;;;;;16.05;12.25;;;10.90;99.90;;;;;;5060735;28;20244;-85
2022/09/19 06:37:49;;;;;;;22.42;13.30;;;11.20;99.90;;;;;;5068960;28;20567;-85
2022/09/19 06:40:38;;;;;;;16.42;11.88;;;11.20;99.90;;;;;;5055396;28;20586;-86
2022/09/19 06:43:50;;;;;;;15.15;12.50;;;10.90;99.90;;;;;;5073210;28;20765;-85
2022/09/19 06:47:16;;;;;;;17.20;12.45;;;11.00;99.90;;;;;;5059979;28;20311;-86
2022/09/19 06:50:15;;;;;;;18.90;12.48;;;11.10;99.90;;;;;;5062605;28;20246;-86
2022/09/19 06:53:18;;;;;;;13.70;12.02;;;11.10;99.90;;;;;;5083294;28;20226;-90
2022/09/19 06:56:10;;;;;;;17.73;12.85;;;11.00;99.90;;;;;;5063633;28;20724;-86
2022/09/19 06:58:58;;;;;;;16.50;12.23;;;11.20;99.90;;;;;;5069660;28;20265;-94
2022/09/19 07:01:47;;;;;;;14.80;11.65;;;11.30;99.90;;;;;;5096156;28;20235;-91
2022/09/19 07:04:36;;;;;;;15.20;11.55;;;11.40;99.90;;;;;;5072860;28;20254;-89
2022/09/19 07:07:35;;;;;;;15.85;11.68;;;11.40;99.90;;;;;;5090687;28;20219;-88
2022/09/19 07:10:26;;;;;;;18.52;11.77;;;11.40;99.90;;;;;;5088095;28;20227;-89
2022/09/19 07:13:16;;;;;;;14.35;11.95;;;11.40;99.90;;;;;;5073434;28;20925;-89
2022/09/19 07:16:10;;;;;;;14.63;11.75;;;11.30;99.90;;;;;;5091842;28;20215;-89
2022/09/19 07:18:59;;;;;;;15.75;11.60;;;11.20;99.90;;;;;;5083701;28;20240;-88
2022/09/19 07:21:56;;;;;;;13.77;11.35;;;11.20;99.90;;;;;;5088151;28;20568;-89
2022/09/19 07:25:07;;;;;;;16.73;12.18;;;11.30;99.90;;;;;;5094793;28;20230;-89
2022/09/19 07:28:06;;;;;;;18.35;12.32;;;11.30;99.90;;;;;;5077389;28;20231;-89
2022/09/19 07:30:58;;;;;;;16.45;12.15;;;11.30;99.90;;;;;;5070809;28;20585;-88
2022/09/19 07:33:48;;;;;;;16.85;12.45;;;11.30;99.90;;;;;;5088670;28;20207;-88
2022/09/19 07:36:37;;;;;;;15.82;12.68;;;11.40;99.90;;;;;;5074551;28;20442;-88
2022/09/19 07:39:25;;;;;;;21.10;14.10;;;11.40;99.90;;;;;;5074532;28;20242;-89
2022/09/19 07:42:52;;;;;;;21.13;14.32;;;11.40;99.90;;;;;;5087681;28;20693;-88
2022/09/19 07:46:02;;;;;;;17.98;14.18;;;11.40;99.90;;;;;;5085335;28;20211;-87
2022/09/19 07:49:16;;;;;;;17.27;13.20;;;11.40;99.90;;;;;;5077116;28;20280;-88
2022/09/19 07:52:26;;;;;;;17.83;12.73;;;11.40;99.90;;;;;;5085768;28;20231;-87
2022/09/19 07:55:15;;;;;;;14.82;12.23;;;11.50;99.90;;;;;;5069077;28;20312;-86
2022/09/19 07:58:05;;;;;;;16.90;12.10;;;11.40;99.90;;;;;;5081047;28;20219;-87
2022/09/19 08:01:08;;;;;;;18.20;12.95;;;11.30;99.90;;;;;;5061572;28;20736;-85
2022/09/19 08:04:36;;;;;;;14.20;11.25;;;11.30;99.90;;;;;;5037368;28;20227;-86
2022/09/19 08:07:24;;;;;;;15.60;11.57;;;11.30;99.90;;;;;;5035517;28;20224;-85
2022/09/19 08:10:15;;;;;;;16.95;11.20;;;11.10;99.90;;;;;;5075415;28;20228;-85
2022/09/19 08:13:05;;;;;;;16.20;11.30;;;11.10;99.90;;;;;;5082771;28;20218;-85
2022/09/19 08:15:54;;;;;;;13.52;10.98;;;11.00;99.90;;;;;;5081908;28;20222;-86
2022/09/19 08:18:49;;;;;;;12.02;10.82;;;11.10;99.90;;;;;;5068881;28;20219;-85
2022/09/19 08:21:38;;;;;;;13.45;10.80;;;11.10;99.90;;;;;;5066432;28;20228;-85
2022/09/19 08:24:27;;;;;;;15.13;11.05;;;11.00;99.90;;;;;;5067950;28;20247;-87
2022/09/19 08:27:24;;;;;;;15.52;11.77;;;11.00;99.90;;;;;;5069365;28;20230;-85
2022/09/19 08:30:14;;;;;;;16.98;12.88;;;11.10;99.90;;;;;;5069087;28;20223;-87
2022/09/19 08:33:06;;;;;;;14.25;11.82;;;11.10;99.90;;;;;;5072460;28;20299;-89
2022/09/19 08:36:02;;;;;;;14.75;11.77;;;11.30;99.90;;;;;;5070339;28;20807;-85
2022/09/19 08:38:54;;;;;;;19.52;13.63;;;11.30;99.90;;;;;;5070389;28;20219;-89
2022/09/19 08:42:11;;;;;;;15.30;12.10;;;11.40;99.90;;;;;;5062905;28;20224;-83
2022/09/19 08:45:04;;;;;;;13.07;10.23;;;11.30;99.90;;;;;;5079159;28;20215;-83
2022/09/19 08:47:53;;;;;;;13.57;11.10;;;11.50;99.90;;;;;;5080061;28;20310;-82
2022/09/19 08:50:49;;;;;;;14.02;10.88;;;11.50;99.90;;;;;;5061199;28;20223;-82
2022/09/19 08:53:44;;;;;;;11.77;10.20;;;11.50;99.90;;;;;;5060253;28;20222;-88
2022/09/19 08:56:37;;;;;;;10.20;9.15;;;11.30;99.90;;;;;;5066713;28;20268;-85
2022/09/19 08:59:29;;;;;;;10.60;9.60;;;11.30;99.90;;;;;;5062445;28;20231;-86
2022/09/19 09:02:40;;;;;;;13.70;10.57;;;11.20;99.90;;;;;;5065154;28;20322;-85
2022/09/19 09:05:59;;;;;;;13.35;10.07;;;11.20;99.90;;;;;;5062089;28;20214;-85
2022/09/19 09:08:58;;;;;;;15.00;10.27;;;11.30;99.90;;;;;;5064708;28;20228;-86
2022/09/19 09:12:00;;;;;;;16.02;11.15;;;11.30;99.90;;;;;;5078367;28;20295;-84
2022/09/19 09:15:03;;;;;;;12.70;10.25;;;11.30;99.90;;;;;;5050283;28;20276;-84
2022/09/19 09:18:45;;;;;;;12.48;10.65;;;11.30;99.90;;;;;;5062037;28;20238;-87
2022/09/19 09:21:46;;;;;;;15.45;11.70;;;11.30;99.90;;;;;;5058033;28;20227;-85
2022/09/19 09:24:40;;;;;;;12.75;10.05;;;11.40;99.90;;;;;;5072090;28;20223;-86
2022/09/19 09:27:58;;;;;;;13.25;11.65;;;11.50;99.90;;;;;;5081697;28;20226;-86
2022/09/19 09:31:07;;;;;;;12.43;10.48;;;11.50;99.90;;;;;;5062107;28;20217;-86
2022/09/19 09:34:00;;;;;;;12.82;11.48;;;11.60;99.90;;;;;;5065662;28;21430;-87
2022/09/19 09:36:55;;;;;;;11.13;9.93;;;11.40;99.90;;;;;;5079022;28;20226;-86
2022/09/19 09:40:09;;;;;;;13.50;10.40;;;11.40;99.90;;;;;;5080943;28;20223;-86
2022/09/19 09:43:05;;;;;;;13.90;10.35;;;11.60;99.90;;;;;;5078460;28;21017;-87
2022/09/19 09:46:01;;;;;;;11.93;9.95;;;11.60;99.90;;;;;;5081609;28;20235;-86
2022/09/19 09:48:52;;;;;;;15.65;10.98;;;11.60;99.90;;;;;;5080909;28;20227;-85
2022/09/19 09:51:50;;;;;;;13.50;10.45;;;11.70;99.90;;;;;;5066241;28;20219;-86
2022/09/19 09:58:08;;;;;;;12.82;11.05;;;11.90;99.90;;;;;;5066303;28;20231;-85
2022/09/19 10:04:37;;;;;;;15.68;10.82;;;11.60;99.90;;;;;;5064053;28;20239;-85
2022/09/19 10:07:39;;;;;;;12.75;11.32;;;11.70;99.90;;;;;;5064028;28;20248;-86
2022/09/19 10:10:38;;;;;;;11.77;10.20;;;11.80;99.90;;;;;;5065167;28;20233;-86
2022/09/19 10:13:33;;;;;;;11.52;10.15;;;12.00;99.90;;;;;;5065718;28;20231;-85
2022/09/19 10:16:23;;;;;;;13.10;9.60;;;11.90;99.90;;;;;;5062630;28;20227;-85
2022/09/19 10:19:27;;;;;;;11.20;9.45;;;11.90;99.90;;;;;;5078060;28;20223;-86
2022/09/19 10:22:18;;;;;;;12.82;10.10;;;12.00;99.90;;;;;;5078942;28;20223;-88
2022/09/19 10:25:18;;;;;;;14.48;9.80;;;12.00;99.90;;;;;;5076280;28;20264;-86
2022/09/19 10:28:17;;;;;;;16.17;9.43;;;12.00;99.90;;;;;;5075729;28;20220;-86
2022/09/19 10:31:34;;;;;;;12.95;9.50;;;12.10;99.90;;;;;;5077953;28;20227;-86
2022/09/19 10:34:50;;;;;;;13.40;8.35;;;12.10;99.90;;;;;;5079983;28;20235;-87
2022/09/19 10:37:52;;;;;;;12.93;8.52;;;12.10;99.90;;;;;;5070271;28;20222;-87
2022/09/19 10:40:55;;;;;;;8.70;7.75;;;12.00;99.90;;;;;;5072659;28;20219;-86
2022/09/19 10:43:47;;;;;;;9.85;8.25;;;12.10;99.90;;;;;;5071614;28;20214;-86
2022/09/19 10:46:47;;;;;;;10.65;7.95;;;12.00;99.90;;;;;;5072379;28;20364;-86
2022/09/19 10:50:02;;;;;;;11.23;8.40;;;12.10;99.90;;;;;;5061943;28;20232;-86
2022/09/19 10:53:05;;;;;;;10.05;7.57;;;12.00;99.90;;;;;;5061362;28;20212;-86
2022/09/19 10:55:56;;;;;;;10.00;7.65;;;12.10;99.90;;;;;;5081363;28;20227;-86
2022/09/19 10:58:46;;;;;;;10.57;8.27;;;12.00;99.90;;;;;;5073488;28;20223;-87
2022/09/19 11:02:09;;;;;;;9.88;7.25;;;12.10;99.90;;;;;;5077837;28;20224;-86
2022/09/19 11:05:03;;;;;;;9.63;7.43;;;12.10;99.90;;;;;;5070361;28;20763;-84
2022/09/19 11:07:58;;;;;;;9.35;7.90;;;11.90;99.90;;;;;;5074745;28;20228;-87
2022/09/19 11:10:52;;;;;;;10.25;7.75;;;11.90;99.90;;;;;;5063629;28;20217;-86
2022/09/19 11:14:29;;;;;;;10.60;7.55;;;12.10;99.90;;;;;;5061121;28;20668;-86
2022/09/19 11:17:55;;;;;;;10.38;7.57;;;12.10;99.90;;;;;;5063078;28;20235;-86
2022/09/19 11:21:11;;;;;;;11.18;6.93;;;12.20;99.90;;;;;;5062116;28;20301;-86
2022/09/19 11:24:17;;;;;;;12.75;7.22;;;12.30;99.90;;;;;;5065303;28;20228;-87
2022/09/19 11:27:22;;;;;;;10.90;7.20;;;12.40;99.90;;;;;;5057863;28;20220;-86
2022/09/19 11:30:15;;;;;;;9.65;7.57;;;12.10;99.90;;;;;;5074491;28;20243;-86
2022/09/19 11:33:19;;;;;;;13.98;7.82;;;12.20;99.90;;;;;;5074583;28;20220;-87
2022/09/19 11:36:58;;;;;;;22.98;8.05;;;12.20;99.90;;;;;;5059573;28;20243;-87
2022/09/19 11:40:04;;;;;;;8.77;6.60;;;12.30;99.90;;;;;;5061797;28;20250;-86
2022/09/19 11:43:06;;;;;;;12.70;6.88;;;12.40;99.90;;;;;;5060767;28;20231;-86
2022/09/19 11:45:59;;;;;;;8.10;6.03;;;12.30;99.90;;;;;;5059904;28;20259;-86
2022/09/19 11:49:27;;;;;;;7.80;5.68;;;12.30;99.90;;;;;;5056876;28;20212;-86
2022/09/19 11:52:26;;;;;;;6.38;5.28;;;12.40;99.90;;;;;;5048568;28;20814;-86
2022/09/19 11:55:29;;;;;;;8.93;5.50;;;12.40;99.90;;;;;;5058982;28;20330;-86
2022/09/19 11:58:26;;;;;;;7.78;5.72;;;12.50;99.90;;;;;;5057246;28;20219;-87
2022/09/19 12:01:35;;;;;;;8.23;5.78;;;12.50;99.90;;;;;;5046903;28;20224;-88
2022/09/19 12:04:38;;;;;;;7.00;4.93;;;12.60;99.90;;;;;;5061429;28;20219;-87
2022/09/19 12:07:35;;;;;;;5.70;4.97;;;12.30;99.90;;;;;;5059241;28;20246;-88
2022/09/19 12:10:31;;;;;;;7.32;5.20;;;12.30;99.90;;;;;;5060219;28;20771;-87
2022/09/19 12:13:24;;;;;;;8.57;4.78;;;12.30;99.90;;;;;;5059978;28;20228;-87
2022/09/19 12:16:24;;;;;;;8.00;5.43;;;12.20;99.90;;;;;;5060872;28;20224;-88
2022/09/19 12:19:24;;;;;;;9.60;5.32;;;12.20;99.90;;;;;;5056727;28;20274;-85
2022/09/19 12:22:19;;;;;;;8.07;5.15;;;12.30;99.90;;;;;;5047848;28;20224;-86
2022/09/19 12:25:17;;;;;;;7.72;5.57;;;12.30;99.90;;;;;;5060566;28;20919;-86
2022/09/19 12:28:15;;;;;;;7.15;5.05;;;12.40;99.90;;;;;;5048039;28;20227;-86
2022/09/19 12:31:11;;;;;;;8.38;6.50;;;12.50;99.90;;;;;;5044775;28;20820;-86
2022/09/19 12:34:11;;;;;;;9.48;5.38;;;12.60;99.90;;;;;;5059195;28;20220;-86
2022/09/19 12:37:08;;;;;;;6.45;4.88;;;12.50;99.90;;;;;;5059335;28;20220;-87
2022/09/19 12:40:05;;;;;;;8.60;5.32;;;12.50;99.90;;;;;;5060667;28;20235;-85
2022/09/19 12:43:03;;;;;;;7.53;5.15;;;12.40;99.90;;;;;;5041656;28;22743;-86
2022/09/19 12:45:59;;;;;;;7.63;5.40;;;12.40;99.90;;;;;;5056126;28;20715;-85
2022/09/19 12:48:56;;;;;;;7.07;5.32;;;12.30;99.90;;;;;;5062041;28;20505;-85
2022/09/19 12:52:23;;;;;;;9.32;6.65;;;12.50;99.90;;;;;;5053352;28;20587;-86
2022/09/19 12:55:19;;;;;;;10.38;6.70;;;12.30;99.90;;;;;;5053551;28;20567;-83
2022/09/19 12:58:15;;;;;;;9.13;5.82;;;12.30;99.90;;;;;;5056016;28;20228;-86
2022/09/19 13:01:15;;;;;;;7.63;4.57;;;12.20;99.90;;;;;;5055271;28;20227;-87
2022/09/19 13:04:18;;;;;;;7.25;4.97;;;12.20;99.90;;;;;;5059799;28;20216;-86
2022/09/19 13:07:11;;;;;;;6.18;4.35;;;12.30;99.90;;;;;;5061958;28;20216;-86
2022/09/19 13:10:16;;;;;;;11.18;3.90;;;12.30;99.90;;;;;;5066434;28;20243;-89
2022/09/19 13:13:13;;;;;;;8.18;4.00;;;12.20;99.90;;;;;;5053998;28;21010;-90
2022/09/19 13:16:08;;;;;;;8.35;3.90;;;12.20;99.90;;;;;;5053295;28;21298;-89
2022/09/19 13:25:20;;;;;;;9.27;4.38;;;12.30;99.90;;;;;;5048744;28;20278;-88
2022/09/19 13:28:34;;;;;;;5.75;4.10;;;12.40;99.90;;;;;;5062202;28;20223;-88
2022/09/19 13:31:25;;;;;;;6.47;3.88;;;12.50;99.90;;;;;;5065903;28;20216;-89
2022/09/19 13:34:41;;;;;;;5.10;4.00;;;12.40;99.90;;;;;;5064932;28;20220;-88
2022/09/19 13:37:57;;;;;;;8.02;3.90;;;12.40;99.90;;;;;;5059353;28;20232;-88
2022/09/19 13:41:00;;;;;;;7.18;3.50;;;12.40;99.90;;;;;;5057541;28;20867;-87
2022/09/19 13:44:00;;;;;;;5.80;3.50;;;12.40;99.90;;;;;;5058844;28;20302;-88
2022/09/19 13:46:55;;;;;;;5.90;3.78;;;12.40;99.90;;;;;;5054013;28;20231;-84
2022/09/19 13:49:50;;;;;;;4.97;4.00;;;12.40;99.90;;;;;;5058573;28;20291;-84
2022/09/19 13:52:42;;;;;;;8.07;4.07;;;12.40;99.90;;;;;;5073439;28;20250;-87
2022/09/19 13:55:33;;;;;;;6.38;4.18;;;12.40;99.90;;;;;;5070753;28;20272;-86
2022/09/19 13:58:31;;;;;;;7.32;4.18;;;12.30;99.90;;;;;;5056937;28;20231;-85
2022/09/19 14:01:22;;;;;;;5.35;4.10;;;12.30;99.90;;;;;;5073501;28;20409;-85
2022/09/19 14:07:37;;;;;;;6.47;4.25;;;12.30;99.90;;;;;;5060832;28;20253;-86
2022/09/19 14:10:52;;;;;;;8.35;4.63;;;12.20;99.90;;;;;;5061779;28;20311;-84
2022/09/19 14:13:40;;;;;;;6.60;4.47;;;12.20;99.90;;;;;;5062123;28;20318;-86
2022/09/19 14:16:33;;;;;;;7.38;4.63;;;12.20;99.90;;;;;;5059712;28;20698;-87
2022/09/19 14:19:44;;;;;;;6.57;4.22;;;12.10;99.90;;;;;;5059218;28;20306;-85
2022/09/19 14:22:44;;;;;;;6.90;4.30;;;12.20;99.90;;;;;;5073785;28;20227;-85
2022/09/19 14:25:34;;;;;;;7.63;4.00;;;12.10;99.90;;;;;;5056234;28;20227;-84
2022/09/19 14:28:52;;;;;;;6.82;4.05;;;12.10;99.90;;;;;;5077634;28;20708;-85
2022/09/19 14:31:52;;;;;;;6.38;4.63;;;12.10;99.90;;;;;;5062924;28;20237;-85
2022/09/19 14:35:16;;;;;;;9.38;4.43;;;12.30;99.90;;;;;;5077371;28;20223;-84
2022/09/19 14:38:28;;;;;;;8.20;4.90;;;12.20;99.90;;;;;;5073181;28;20219;-79
2022/09/19 14:41:23;;;;;;;5.97;4.65;;;12.30;99.90;;;;;;5060803;28;20703;-83
2022/09/19 14:44:52;;;;;;;8.18;4.78;;;12.40;99.90;;;;;;5069339;28;20223;-81
2022/09/19 14:47:45;;;;;;;8.20;5.30;;;12.40;99.90;;;;;;5075397;28;20658;-82
2022/09/19 14:50:38;;;;;;;11.05;5.47;;;12.30;99.90;;;;;;5074530;28;20674;-82
2022/09/19 14:53:31;;;;;;;7.93;5.20;;;12.30;99.90;;;;;;5075178;28;20235;-82
2022/09/19 14:56:25;;;;;;;7.28;4.78;;;12.30;99.90;;;;;;5063790;28;20239;-82
2022/09/19 14:59:21;;;;;;;8.23;4.65;;;12.20;99.90;;;;;;5059488;28;20219;-82
2022/09/19 15:02:19;;;;;;;7.32;5.20;;;12.20;99.90;;;;;;5059074;28;20223;-82
2022/09/19 15:05:19;;;;;;;9.10;5.03;;;12.30;99.90;;;;;;5058092;28;20654;-81
2022/09/19 15:08:31;;;;;;;6.43;4.55;;;12.30;99.90;;;;;;5060577;28;20226;-83
2022/09/19 15:11:21;;;;;;;7.38;5.10;;;12.30;99.90;;;;;;5062071;28;20342;-84
2022/09/19 15:14:15;;;;;;;11.40;6.68;;;12.30;99.90;;;;;;5060875;28;20831;-82
2022/09/19 15:17:10;;;;;;;10.07;5.88;;;12.20;99.90;;;;;;5063852;28;20223;-83
2022/09/19 15:20:12;;;;;;;7.07;4.93;;;12.20;99.90;;;;;;5076842;28;20268;-82
2022/09/19 15:23:02;;;;;;;9.02;4.90;;;12.20;99.90;;;;;;5078973;28;20310;-82
2022/09/19 15:25:57;;;;;;;7.47;5.72;;;12.20;99.90;;;;;;5066172;28;20291;-82
2022/09/19 15:28:57;;;;;;;8.27;5.60;;;12.30;99.90;;;;;;5078790;28;20733;-83
2022/09/19 15:31:48;;;;;;;9.55;5.68;;;12.20;99.90;;;;;;5081830;28;20231;-82
2022/09/19 15:34:39;;;;;;;7.95;5.32;;;12.30;99.90;;;;;;5080472;28;20227;-83
2022/09/19 15:37:31;;;;;;;11.50;5.90;;;12.20;99.90;;;;;;5079202;28;20232;-82
2022/09/19 15:40:24;;;;;;;8.40;5.70;;;12.30;99.90;;;;;;5064610;28;20243;-82
2022/09/19 15:43:14;;;;;;;9.05;6.60;;;12.10;99.90;;;;;;5079522;28;20226;-82